createdAt,value
2018-09-04T00:00:14.261Z,100361.64
2018-09-04T00:01:20.333Z,100357.48
2018-09-04T00:02:26.446Z,100364.20
2018-09-04T00:03:32.581Z,100365.16
2018-09-04T00:04:38.529Z,100363.88
2018-09-04T00:05:44.693Z,100361.27
2018-09-04T00:06:50.878Z,100366.53
2018-09-04T00:07:56.620Z,100363.27
2018-09-04T00:09:03.099Z,100358.38
2018-09-04T00:10:08.604Z,100360.50
2018-09-04T00:11:14.812Z,100360.08
2018-09-04T00:12:20.816Z,100359.52
2018-09-04T00:13:26.896Z,100361.36
2018-09-04T00:14:33.006Z,100361.92
2018-09-04T00:15:39.154Z,100365.51
2018-09-04T00:16:45.328Z,100363.67
2018-09-04T00:17:51.435Z,100352.50
2018-09-04T00:18:57.629Z,100352.08
2018-09-04T00:20:03.387Z,100357.72
2018-09-04T00:21:08.853Z,100357.77
2018-09-04T00:22:14.609Z,100349.61
2018-09-04T00:23:20.671Z,100354.73
2018-09-04T00:24:26.858Z,100356.53
2018-09-04T00:25:32.993Z,100353.80
2018-09-04T00:26:39.097Z,100355.50
2018-09-04T00:27:45.093Z,100357.73
2018-09-04T00:28:51.981Z,100353.37
2018-09-04T00:29:57.497Z,100350.95
2018-09-04T00:31:03.833Z,100355.31
2018-09-04T00:32:09.917Z,100354.36
2018-09-04T00:33:16.061Z,100350.34
2018-09-04T00:34:22.176Z,100353.45
2018-09-04T00:35:28.364Z,100355.11
2018-09-04T00:36:34.482Z,100358.58
2018-09-04T00:37:40.644Z,100356.02
2018-09-04T00:38:46.396Z,100351.91
2018-09-04T00:39:52.241Z,100351.32
2018-09-04T00:40:58.379Z,100346.48
2018-09-04T00:42:04.508Z,100349.48
2018-09-04T00:43:10.571Z,100349.05
2018-09-04T00:44:16.579Z,100350.19
2018-09-04T00:45:22.447Z,100346.50
2018-09-04T00:46:28.617Z,100347.63
2018-09-04T00:47:34.759Z,100343.02
2018-09-04T00:48:40.568Z,100340.80
2018-09-04T00:49:46.619Z,100345.77
2018-09-04T00:50:52.856Z,100344.16
2018-09-04T00:51:58.942Z,100345.69
2018-09-04T00:53:05.140Z,100347.72
2018-09-04T00:54:11.235Z,100350.33
2018-09-04T00:55:17.354Z,100346.73
2018-09-04T00:56:23.590Z,100350.47
2018-09-04T00:57:29.583Z,100351.84
2018-09-04T00:58:35.564Z,100352.22
2018-09-04T00:59:41.642Z,100351.70
2018-09-04T01:00:47.083Z,100348.39
2018-09-04T01:01:52.019Z,100350.19
2018-09-04T01:02:58.189Z,100355.11
2018-09-04T01:04:04.323Z,100354.36
2018-09-04T01:05:09.780Z,100358.00
2018-09-04T01:06:15.963Z,100354.30
2018-09-04T01:07:22.102Z,100357.91
2018-09-04T01:08:28.165Z,100355.86
2018-09-04T01:09:33.889Z,100352.50
2018-09-04T01:10:39.894Z,100356.73
2018-09-04T01:11:46.767Z,100351.80
2018-09-04T01:12:52.908Z,100355.48
2018-09-04T01:13:59.007Z,100349.00
2018-09-04T01:15:04.746Z,100353.35
2018-09-04T01:16:10.458Z,100352.11
2018-09-04T01:17:16.565Z,100357.40
2018-09-04T01:18:22.688Z,100351.77
2018-09-04T01:19:28.704Z,100352.73
2018-09-04T01:20:34.495Z,100351.12
2018-09-04T01:21:40.687Z,100355.31
2018-09-04T01:22:46.880Z,100352.17
2018-09-04T01:23:53.063Z,100350.42
2018-09-04T01:24:59.060Z,100353.78
2018-09-04T01:26:04.805Z,100350.70
2018-09-04T01:27:11.016Z,100353.58
2018-09-04T01:28:17.187Z,100350.45
2018-09-04T01:29:23.296Z,100344.19
2018-09-04T01:30:29.404Z,100345.57
2018-09-04T01:31:35.515Z,100344.00
2018-09-04T01:32:41.744Z,100341.46
2018-09-04T01:33:47.969Z,100339.66
2018-09-04T01:34:53.674Z,100345.93
2018-09-04T01:35:59.753Z,100345.96
2018-09-04T01:37:06.270Z,100346.39
2018-09-04T01:38:12.376Z,100345.39
2018-09-04T01:39:18.135Z,100344.63
2018-09-04T01:40:24.288Z,100346.09
2018-09-04T01:41:30.374Z,100351.28
2018-09-04T01:42:36.522Z,100343.27
2018-09-04T01:43:42.699Z,100347.62
2018-09-04T01:44:48.797Z,100353.36
2018-09-04T01:45:54.914Z,100349.32
2018-09-04T01:47:00.919Z,100357.84
2018-09-04T01:48:06.663Z,100355.86
2018-09-04T01:49:13.334Z,100357.21
2018-09-04T01:50:19.478Z,100353.36
2018-09-04T01:51:25.632Z,100348.83
2018-09-04T01:52:31.795Z,100352.25
2018-09-04T01:53:42.840Z,100352.37
2018-09-04T01:54:48.951Z,100348.49
2018-09-04T01:55:55.094Z,100353.38
2018-09-04T01:57:01.233Z,100351.75
2018-09-04T01:58:07.076Z,100353.39
2018-09-04T01:59:13.216Z,100354.89
2018-09-04T02:00:19.334Z,100348.11
2018-09-04T02:01:25.087Z,100347.44
2018-09-04T02:02:31.207Z,100353.89
2018-09-04T02:03:37.259Z,100343.41
2018-09-04T02:04:43.452Z,100351.08
2018-09-04T02:05:49.566Z,100348.16
2018-09-04T02:06:55.783Z,100346.88
2018-09-04T02:08:01.993Z,100349.59
2018-09-04T02:09:07.955Z,100355.33
2018-09-04T02:10:14.083Z,100348.63
2018-09-04T02:11:20.199Z,100352.87
2018-09-04T02:12:26.334Z,100351.82
2018-09-04T02:13:32.548Z,100349.48
2018-09-04T02:14:38.676Z,100351.46
2018-09-04T02:15:44.628Z,100342.88
2018-09-04T02:16:50.735Z,100342.41
2018-09-04T02:17:56.895Z,100345.42
2018-09-04T02:19:02.724Z,100349.95
2018-09-04T02:20:08.476Z,100346.13
2018-09-04T02:21:14.635Z,100347.27
2018-09-04T02:22:20.403Z,100348.81
2018-09-04T02:23:26.452Z,100344.05
2018-09-04T02:24:32.556Z,100342.45
2018-09-04T02:25:38.674Z,100342.45
2018-09-04T02:26:44.910Z,100339.58
2018-09-04T02:27:56.581Z,100337.40
2018-09-04T02:29:02.770Z,100336.66
2018-09-04T02:30:08.578Z,100342.78
2018-09-04T02:31:14.686Z,100342.27
2018-09-04T02:32:20.859Z,100343.59
2018-09-04T02:33:27.085Z,100345.66
2018-09-04T02:34:33.509Z,100345.23
2018-09-04T02:35:40.646Z,100344.64
2018-09-04T02:36:46.811Z,100339.39
2018-09-04T02:37:52.939Z,100350.39
2018-09-04T02:38:58.767Z,100341.23
2018-09-04T02:40:04.528Z,100343.64
2018-09-04T02:41:10.500Z,100342.69
2018-09-04T02:42:16.643Z,100341.41
2018-09-04T02:43:22.763Z,100338.52
2018-09-04T02:44:28.628Z,100346.91
2018-09-04T02:45:34.760Z,100344.56
2018-09-04T02:46:40.843Z,100344.98
2018-09-04T02:47:46.867Z,100350.72
2018-09-04T02:48:52.954Z,100349.06
2018-09-04T02:49:59.125Z,100346.75
2018-09-04T02:51:04.712Z,100352.53
2018-09-04T02:52:10.824Z,100352.36
2018-09-04T02:53:17.017Z,100353.59
2018-09-04T02:54:23.200Z,100347.28
2018-09-04T02:55:29.304Z,100355.55
2018-09-04T02:56:36.008Z,100351.52
2018-09-04T02:57:42.256Z,100348.78
2018-09-04T02:58:47.854Z,100352.25
2018-09-04T02:59:53.823Z,100349.34
2018-09-04T03:00:59.763Z,100351.64
2018-09-04T03:02:06.438Z,100351.48
2018-09-04T03:03:12.601Z,100352.95
2018-09-04T03:04:18.799Z,100356.66
2018-09-04T03:05:24.940Z,100364.69
2018-09-04T03:06:31.091Z,100359.64
2018-09-04T03:07:37.205Z,100360.89
2018-09-04T03:08:43.342Z,100367.21
2018-09-04T03:09:49.517Z,100368.96
2018-09-04T03:10:55.656Z,100373.79
2018-09-04T03:12:01.828Z,100369.81
2018-09-04T03:13:07.976Z,100367.75
2018-09-04T03:14:13.824Z,100373.99
2018-09-04T03:15:19.859Z,100366.35
2018-09-04T03:16:25.952Z,100368.66
2018-09-04T03:17:32.081Z,100377.39
2018-09-04T03:18:38.102Z,100375.47
2018-09-04T03:19:44.282Z,100373.89
2018-09-04T03:20:50.454Z,100372.79
2018-09-04T03:21:56.613Z,100367.27
2018-09-04T03:23:02.819Z,100367.75
2018-09-04T03:24:09.164Z,100370.86
2018-09-04T03:25:15.318Z,100368.52
2018-09-04T03:26:21.427Z,100368.43
2018-09-04T03:27:27.558Z,100366.73
2018-09-04T03:28:33.337Z,100367.95
2018-09-04T03:29:39.365Z,100371.29
2018-09-04T03:30:45.333Z,100364.88
2018-09-04T03:31:51.473Z,100368.59
2018-09-04T03:32:57.581Z,100364.19
2018-09-04T03:34:03.765Z,100370.46
2018-09-04T03:35:09.786Z,100370.38
2018-09-04T03:36:15.893Z,100372.89
2018-09-04T03:37:22.002Z,100376.31
2018-09-04T03:38:28.106Z,100373.46
2018-09-04T03:39:34.816Z,100373.84
2018-09-04T03:40:40.951Z,100374.57
2018-09-04T03:41:47.124Z,100370.81
2018-09-04T03:42:53.264Z,100372.09
2018-09-04T03:43:59.392Z,100371.45
2018-09-04T03:45:04.668Z,100372.18
2018-09-04T03:46:10.838Z,100370.19
2018-09-04T03:47:16.968Z,100372.15
2018-09-04T03:48:23.001Z,100366.97
2018-09-04T03:49:29.309Z,100371.67
2018-09-04T03:50:35.431Z,100372.95
2018-09-04T03:51:42.117Z,100370.82
2018-09-04T03:52:48.217Z,100371.66
2018-09-04T03:53:54.365Z,100375.05
2018-09-04T03:55:00.554Z,100375.55
2018-09-04T03:56:06.525Z,100372.39
2018-09-04T03:57:12.645Z,100381.36
2018-09-04T03:58:19.489Z,100386.75
2018-09-04T03:59:25.614Z,100380.98
2018-09-04T04:00:31.802Z,100378.80
2018-09-04T04:01:38.001Z,100385.59
2018-09-04T04:02:44.118Z,100383.75
2018-09-04T04:03:50.349Z,100384.18
2018-09-04T04:04:56.453Z,100390.52
2018-09-04T04:06:02.750Z,100388.58
2018-09-04T04:07:08.741Z,100394.35
2018-09-04T04:08:14.947Z,100390.89
2018-09-04T04:09:21.094Z,100391.11
2018-09-04T04:10:27.271Z,100394.73
2018-09-04T04:11:33.594Z,100395.98
2018-09-04T04:12:39.709Z,100401.83
2018-09-04T04:13:46.031Z,100394.66
2018-09-04T04:14:52.257Z,100399.95
2018-09-04T04:15:58.521Z,100394.99
2018-09-04T04:17:04.436Z,100398.75
2018-09-04T04:18:10.529Z,100395.37
2018-09-04T04:19:16.751Z,100394.44
2018-09-04T04:20:22.749Z,100399.13
2018-09-04T04:21:28.882Z,100393.03
2018-09-04T04:22:35.078Z,100397.81
2018-09-04T04:23:41.491Z,100399.39
2018-09-04T04:24:47.828Z,100400.03
2018-09-04T04:25:53.776Z,100397.42
2018-09-04T04:27:00.134Z,100399.66
2018-09-04T04:28:06.345Z,100397.64
2018-09-04T04:29:12.286Z,100403.98
2018-09-04T04:30:18.397Z,100404.09
2018-09-04T04:31:24.552Z,100395.98
2018-09-04T04:32:30.524Z,100401.19
2018-09-04T04:33:36.658Z,100395.34
2018-09-04T04:34:42.784Z,100392.27
2018-09-04T04:35:48.629Z,100397.91
2018-09-04T04:36:54.398Z,100396.31
2018-09-04T04:38:00.885Z,100396.58
2018-09-04T04:39:06.572Z,100397.69
2018-09-04T04:40:12.329Z,100397.38
2018-09-04T04:41:18.897Z,100398.75
2018-09-04T04:42:25.096Z,100398.06
2018-09-04T04:43:31.848Z,100400.25
2018-09-04T04:44:38.072Z,100399.17
2018-09-04T04:45:45.447Z,100395.26
2018-09-04T04:46:52.213Z,100402.14
2018-09-04T04:47:58.383Z,100395.66
2018-09-04T04:49:04.755Z,100395.77
2018-09-04T04:50:10.911Z,100393.37
2018-09-04T04:51:16.988Z,100395.42
2018-09-04T04:52:23.733Z,100395.63
2018-09-04T04:53:29.848Z,100396.05
2018-09-04T04:54:36.710Z,100394.56
2018-09-04T04:55:42.888Z,100394.52
2018-09-04T04:56:49.008Z,100398.42
2018-09-04T04:57:55.134Z,100397.07
2018-09-04T04:59:01.839Z,100398.06
2018-09-04T05:00:07.959Z,100399.13
2018-09-04T05:01:13.888Z,100403.50
2018-09-04T05:02:20.052Z,100400.08
2018-09-04T05:03:26.252Z,100401.57
2018-09-04T05:04:32.394Z,100405.84
2018-09-04T05:05:38.575Z,100397.69
2018-09-04T05:06:44.449Z,100399.85
2018-09-04T05:07:51.282Z,100405.48
2018-09-04T05:08:58.055Z,100407.38
2018-09-04T05:10:04.057Z,100408.33
2018-09-04T05:11:10.566Z,100405.31
2018-09-04T05:12:16.851Z,100409.19
2018-09-04T05:13:22.622Z,100409.41
2018-09-04T05:14:29.393Z,100409.35
2018-09-04T05:15:35.670Z,100408.33
2018-09-04T05:16:41.800Z,100409.88
2018-09-04T05:17:47.913Z,100405.16
2018-09-04T05:18:54.118Z,100403.32
2018-09-04T05:20:00.232Z,100405.59
2018-09-04T05:21:05.903Z,100411.08
2018-09-04T05:22:12.044Z,100413.70
2018-09-04T05:23:18.137Z,100411.09
2018-09-04T05:24:24.246Z,100411.41
2018-09-04T05:25:30.397Z,100417.00
2018-09-04T05:26:36.561Z,100411.95
2018-09-04T05:27:42.673Z,100414.70
2018-09-04T05:28:48.684Z,100414.77
2018-09-04T05:29:54.753Z,100415.29
2018-09-04T05:31:00.918Z,100419.91
2018-09-04T05:32:06.433Z,100418.89
2018-09-04T05:33:12.349Z,100414.91
2018-09-04T05:34:18.257Z,100420.80
2018-09-04T05:35:24.182Z,100417.08
2018-09-04T05:36:30.285Z,100417.73
2018-09-04T05:37:36.039Z,100421.33
2018-09-04T05:38:42.074Z,100417.39
2018-09-04T05:39:48.205Z,100421.98
2018-09-04T05:40:54.345Z,100426.77
2018-09-04T05:42:00.532Z,100425.42
2018-09-04T05:43:06.277Z,100423.84
2018-09-04T05:44:12.170Z,100422.08
2018-09-04T05:45:18.116Z,100425.69
2018-09-04T05:46:24.024Z,100430.05
2018-09-04T05:47:29.823Z,100429.28
2018-09-04T05:48:35.724Z,100429.12
2018-09-04T05:49:41.604Z,100430.59
2018-09-04T05:50:47.546Z,100428.13
2018-09-04T05:51:53.665Z,100434.42
2018-09-04T05:52:59.788Z,100428.92
2018-09-04T05:54:05.796Z,100429.41
2018-09-04T05:55:11.970Z,100433.66
2018-09-04T05:56:18.088Z,100434.63
2018-09-04T05:57:24.240Z,100434.50
2018-09-04T05:58:30.409Z,100433.44
2018-09-04T05:59:36.304Z,100434.50
2018-09-04T06:00:42.305Z,100433.58
2018-09-04T06:01:48.441Z,100436.25
2018-09-04T06:02:54.423Z,100438.81
2018-09-04T06:04:01.253Z,100438.13
2018-09-04T06:05:07.387Z,100432.75
2018-09-04T06:06:13.593Z,100432.95
2018-09-04T06:07:19.760Z,100436.20
2018-09-04T06:08:25.882Z,100431.08
2018-09-04T06:09:32.010Z,100437.56
2018-09-04T06:10:38.105Z,100435.05
2018-09-04T06:11:43.862Z,100435.47
2018-09-04T06:12:50.132Z,100438.20
2018-09-04T06:13:56.199Z,100441.14
2018-09-04T06:15:02.339Z,100434.98
2018-09-04T06:16:08.439Z,100438.23
2018-09-04T06:17:14.521Z,100440.11
2018-09-04T06:18:20.301Z,100436.93
2018-09-04T06:19:26.907Z,100436.68
2018-09-04T06:20:33.061Z,100434.75
2018-09-04T06:21:39.295Z,100434.28
2018-09-04T06:22:45.473Z,100433.37
2018-09-04T06:23:51.610Z,100437.11
2018-09-04T06:24:57.948Z,100432.38
2018-09-04T06:26:05.190Z,100432.38
2018-09-04T06:27:12.338Z,100435.28
2018-09-04T06:28:23.366Z,100432.73
2018-09-04T06:29:29.542Z,100435.53
2018-09-04T06:30:35.921Z,100429.20
2018-09-04T06:31:42.156Z,100432.57
2018-09-04T06:32:48.205Z,100434.74
2018-09-04T06:33:55.011Z,100435.31
2018-09-04T06:35:01.622Z,100435.10
2018-09-04T06:36:07.660Z,100438.61
2018-09-04T06:37:13.450Z,100444.44
2018-09-04T06:38:19.573Z,100448.45
2018-09-04T06:39:25.410Z,100445.31
2018-09-04T06:40:31.579Z,100441.22
2018-09-04T06:41:37.742Z,100448.12
2018-09-04T06:42:43.903Z,100451.57
2018-09-04T06:43:50.011Z,100445.91
2018-09-04T06:44:56.071Z,100449.98
2018-09-04T06:46:02.275Z,100456.15
2018-09-04T06:47:08.439Z,100456.55
2018-09-04T06:48:14.552Z,100451.63
2018-09-04T06:49:20.898Z,100458.41
2018-09-04T06:50:26.741Z,100452.62
2018-09-04T06:51:33.640Z,100458.27
2018-09-04T06:52:39.720Z,100460.97
2018-09-04T06:53:45.771Z,100456.74
2018-09-04T06:54:51.849Z,100457.88
2018-09-04T06:55:58.577Z,100459.79
2018-09-04T06:57:04.964Z,100458.88
2018-09-04T06:58:11.148Z,100459.98
2018-09-04T06:59:17.280Z,100457.61
2018-09-04T07:00:23.454Z,100458.02
2018-09-04T07:01:29.518Z,100455.23
2018-09-04T07:02:35.656Z,100457.27
2018-09-04T07:03:41.789Z,100460.68
2018-09-04T07:04:48.278Z,100457.17
2018-09-04T07:05:56.660Z,100458.73
2018-09-04T07:07:03.066Z,100460.78
2018-09-04T07:08:09.313Z,100459.58
2018-09-04T07:09:15.371Z,100464.28
2018-09-04T07:10:21.479Z,100462.15
2018-09-04T07:11:27.627Z,100460.84
2018-09-04T07:12:33.845Z,100465.23
2018-09-04T07:13:40.652Z,100460.19
2018-09-04T07:14:46.352Z,100465.08
2018-09-04T07:15:52.458Z,100466.43
2018-09-04T07:16:58.738Z,100470.18
2018-09-04T07:18:04.669Z,100471.59
2018-09-04T07:19:09.953Z,100472.16
2018-09-04T07:20:16.036Z,100470.66
2018-09-04T07:21:22.200Z,100471.88
2018-09-04T07:22:28.419Z,100471.02
2018-09-04T07:23:34.569Z,100472.63
2018-09-04T07:24:40.688Z,100477.39
2018-09-04T07:25:46.569Z,100471.67
2018-09-04T07:27:00.394Z,100475.13
2018-09-04T07:28:06.468Z,100473.33
2018-09-04T07:29:12.595Z,100469.30
2018-09-04T07:30:18.711Z,100472.21
2018-09-04T07:31:24.798Z,100472.25
2018-09-04T07:32:31.043Z,100473.68
2018-09-04T07:33:37.033Z,100470.55
2018-09-04T07:34:43.228Z,100468.00
2018-09-04T07:35:49.361Z,100471.98
2018-09-04T07:36:55.525Z,100465.12
2018-09-04T07:38:01.699Z,100468.92
2018-09-04T07:39:07.853Z,100474.31
2018-09-04T07:40:14.010Z,100464.05
2018-09-04T07:41:20.417Z,100457.73
2018-09-04T07:42:26.645Z,100463.58
2018-09-04T07:43:32.761Z,100458.13
2018-09-04T07:44:39.945Z,100462.89
2018-09-04T07:45:46.074Z,100462.66
2018-09-04T07:46:52.157Z,100457.70
2018-09-04T07:47:58.871Z,100462.67
2018-09-04T07:49:04.616Z,100457.88
2018-09-04T07:50:10.669Z,100459.31
2018-09-04T07:51:16.804Z,100458.36
2018-09-04T07:52:23.020Z,100453.99
2018-09-04T07:53:29.208Z,100458.23
2018-09-04T07:54:35.318Z,100454.59
2018-09-04T07:55:41.449Z,100457.66
2018-09-04T07:56:47.291Z,100454.63
2018-09-04T07:57:52.993Z,100455.40
2018-09-04T07:58:59.124Z,100455.94
2018-09-04T08:00:05.165Z,100456.53
2018-09-04T08:01:11.429Z,100460.25
2018-09-04T08:02:17.593Z,100454.06
2018-09-04T08:03:23.764Z,100453.33
2018-09-04T08:04:29.869Z,100454.66
2018-09-04T08:05:35.996Z,100452.42
2018-09-04T08:06:42.014Z,100453.28
2018-09-04T08:07:47.781Z,100452.51
2018-09-04T08:08:54.064Z,100453.87
2018-09-04T08:10:00.351Z,100456.56
2018-09-04T08:11:05.694Z,100453.92
2018-09-04T08:12:11.796Z,100451.63
2018-09-04T08:13:17.945Z,100450.58
2018-09-04T08:14:23.897Z,100455.34
2018-09-04T08:15:30.025Z,100450.19
2018-09-04T08:16:36.155Z,100454.17
2018-09-04T08:17:42.262Z,100456.39
2018-09-04T08:18:48.545Z,100459.03
2018-09-04T08:19:54.663Z,100456.38
2018-09-04T08:21:00.851Z,100463.28
2018-09-04T08:22:06.881Z,100461.22
2018-09-04T08:23:13.101Z,100457.52
2018-09-04T08:24:19.298Z,100461.28
2018-09-04T08:25:25.398Z,100461.30
2018-09-04T08:26:31.520Z,100457.56
2018-09-04T08:27:37.404Z,100461.34
2018-09-04T08:28:43.529Z,100456.87
2018-09-04T08:29:49.747Z,100455.75
2018-09-04T08:30:55.969Z,100459.11
2018-09-04T08:32:02.060Z,100457.56
2018-09-04T08:33:08.343Z,100452.39
2018-09-04T08:34:14.646Z,100453.78
2018-09-04T08:35:20.787Z,100450.26
2018-09-04T08:36:26.913Z,100455.91
2018-09-04T08:37:33.124Z,100450.84
2018-09-04T08:38:39.051Z,100447.83
2018-09-04T08:39:45.201Z,100444.59
2018-09-04T08:40:51.323Z,100440.86
2018-09-04T08:41:57.484Z,100441.19
2018-09-04T08:43:03.875Z,100441.77
2018-09-04T08:44:10.045Z,100431.97
2018-09-04T08:45:16.150Z,100437.62
2018-09-04T08:46:22.032Z,100436.77
2018-09-04T08:47:28.212Z,100433.23
2018-09-04T08:48:34.604Z,100435.33
2018-09-04T08:49:40.693Z,100430.09
2018-09-04T08:50:46.493Z,100434.63
2018-09-04T08:51:52.484Z,100433.70
2018-09-04T08:52:58.511Z,100427.79
2018-09-04T08:54:04.589Z,100435.66
2018-09-04T08:55:10.708Z,100436.47
2018-09-04T08:56:17.018Z,100433.53
2018-09-04T08:57:22.965Z,100427.25
2018-09-04T08:58:29.262Z,100427.21
2018-09-04T08:59:35.101Z,100428.83
2018-09-04T09:00:41.343Z,100421.60
2018-09-04T09:01:47.439Z,100427.27
2018-09-04T09:02:53.444Z,100427.01
2018-09-04T09:03:59.477Z,100421.73
2018-09-04T09:05:05.209Z,100428.04
2018-09-04T09:06:11.332Z,100421.62
2018-09-04T09:07:17.250Z,100428.77
2018-09-04T09:08:23.403Z,100426.05
2018-09-04T09:09:29.480Z,100423.48
2018-09-04T09:10:35.595Z,100422.93
2018-09-04T09:11:41.705Z,100424.48
2018-09-04T09:12:47.808Z,100418.80
2018-09-04T09:13:53.952Z,100421.16
2018-09-04T09:15:00.129Z,100418.77
2018-09-04T09:16:05.933Z,100421.50
2018-09-04T09:17:12.245Z,100417.45
2018-09-04T09:18:18.383Z,100413.36
2018-09-04T09:19:24.533Z,100417.25
2018-09-04T09:20:30.668Z,100415.54
2018-09-04T09:21:36.783Z,100416.27
2018-09-04T09:22:42.919Z,100410.98
2018-09-04T09:23:49.285Z,100410.63
2018-09-04T09:24:55.416Z,100414.75
2018-09-04T09:26:01.505Z,100415.61
2018-09-04T09:27:07.424Z,100415.48
2018-09-04T09:28:13.317Z,100414.00
2018-09-04T09:29:19.423Z,100414.44
2018-09-04T09:30:25.557Z,100414.35
2018-09-04T09:31:31.501Z,100410.12
2018-09-04T09:32:37.628Z,100416.34
2018-09-04T09:33:43.659Z,100414.15
2018-09-04T09:34:49.759Z,100408.48
2018-09-04T09:35:55.641Z,100408.55
2018-09-04T09:37:01.847Z,100409.75
2018-09-04T09:38:08.077Z,100414.00
2018-09-04T09:39:14.221Z,100409.99
2018-09-04T09:40:20.398Z,100407.77
2018-09-04T09:41:26.507Z,100406.84
2018-09-04T09:42:32.380Z,100404.00
2018-09-04T09:43:38.539Z,100405.05
2018-09-04T09:44:44.729Z,100401.96
2018-09-04T09:45:50.836Z,100395.91
2018-09-04T09:46:56.396Z,100400.06
2018-09-04T09:48:02.537Z,100396.27
2018-09-04T09:49:08.677Z,100398.45
2018-09-04T09:50:14.837Z,100392.38
2018-09-04T09:51:20.846Z,100392.36
2018-09-04T09:52:27.009Z,100386.66
2018-09-04T09:53:33.533Z,100391.53
2018-09-04T09:54:39.621Z,100389.39
2018-09-04T09:55:45.818Z,100387.31
2018-09-04T09:56:51.902Z,100381.48
2018-09-04T09:57:57.790Z,100383.91
2018-09-04T09:59:03.368Z,100379.33
2018-09-04T10:00:08.968Z,100380.66
2018-09-04T10:01:15.024Z,100375.05
2018-09-04T10:02:21.209Z,100376.34
2018-09-04T10:03:27.082Z,100373.25
2018-09-04T10:04:33.261Z,100376.59
2018-09-04T10:05:39.261Z,100373.79
2018-09-04T10:06:45.430Z,100377.52
2018-09-04T10:07:51.674Z,100384.24
2018-09-04T10:08:57.987Z,100373.75
2018-09-04T10:10:04.185Z,100377.71
2018-09-04T10:11:10.430Z,100380.71
2018-09-04T10:12:16.579Z,100384.17
2018-09-04T10:13:22.693Z,100379.04
2018-09-04T10:14:28.833Z,100379.09
2018-09-04T10:15:34.905Z,100381.28
2018-09-04T10:16:41.022Z,100379.55
2018-09-04T10:17:47.160Z,100375.22
2018-09-04T10:18:53.012Z,100375.27
2018-09-04T10:19:59.252Z,100377.05
2018-09-04T10:21:05.191Z,100374.15
2018-09-04T10:22:11.277Z,100373.98
2018-09-04T10:23:17.237Z,100375.78
2018-09-04T10:24:23.389Z,100370.38
2018-09-04T10:25:29.459Z,100368.75
2018-09-04T10:26:35.374Z,100370.72
2018-09-04T10:27:41.676Z,100377.54
2018-09-04T10:28:47.795Z,100377.89
2018-09-04T10:29:53.878Z,100375.58
2018-09-04T10:30:59.739Z,100380.48
2018-09-04T10:32:05.173Z,100376.13
2018-09-04T10:33:11.295Z,100374.33
2018-09-04T10:34:17.415Z,100374.75
2018-09-04T10:35:23.652Z,100382.25
2018-09-04T10:36:29.832Z,100380.15
2018-09-04T10:37:35.962Z,100375.81
2018-09-04T10:38:41.868Z,100378.00
2018-09-04T10:39:47.750Z,100375.53
2018-09-04T10:40:53.846Z,100373.97
2018-09-04T10:42:00.990Z,100374.09
2018-09-04T10:43:07.300Z,100373.16
2018-09-04T10:44:13.754Z,100366.66
2018-09-04T10:45:19.450Z,100364.64
2018-09-04T10:46:25.609Z,100370.48
2018-09-04T10:47:31.753Z,100372.02
2018-09-04T10:48:37.936Z,100369.25
2018-09-04T10:49:44.072Z,100368.67
2018-09-04T10:50:50.211Z,100361.89
2018-09-04T10:51:56.059Z,100370.52
2018-09-04T10:53:02.189Z,100372.02
2018-09-04T10:54:07.471Z,100369.70
2018-09-04T10:55:13.356Z,100372.70
2018-09-04T10:56:19.231Z,100372.11
2018-09-04T10:57:25.048Z,100372.01
2018-09-04T10:58:30.896Z,100376.06
2018-09-04T10:59:37.063Z,100368.78
2018-09-04T11:00:43.208Z,100375.32
2018-09-04T11:01:49.156Z,100364.16
2018-09-04T11:02:55.045Z,100366.64
2018-09-04T11:04:00.715Z,100367.75
2018-09-04T11:05:06.404Z,100362.70
2018-09-04T11:06:12.288Z,100355.98
2018-09-04T11:07:18.198Z,100363.67
2018-09-04T11:08:24.139Z,100359.67
2018-09-04T11:09:30.059Z,100360.79
2018-09-04T11:10:36.116Z,100358.50
2018-09-04T11:11:42.295Z,100367.55
2018-09-04T11:12:47.877Z,100360.40
2018-09-04T11:13:54.002Z,100366.55
2018-09-04T11:14:59.871Z,100366.52
2018-09-04T11:16:05.678Z,100361.60
2018-09-04T11:17:11.703Z,100366.27
2018-09-04T11:18:17.834Z,100362.61
2018-09-04T11:19:23.935Z,100356.69
2018-09-04T11:20:30.060Z,100354.81
2018-09-04T11:21:35.875Z,100351.36
2018-09-04T11:22:41.966Z,100350.43
2018-09-04T11:23:47.889Z,100346.33
2018-09-04T11:24:54.133Z,100345.79
2018-09-04T11:26:00.372Z,100342.00
2018-09-04T11:27:06.173Z,100342.35
2018-09-04T11:28:12.173Z,100345.66
2018-09-04T11:29:17.985Z,100347.84
2018-09-04T11:30:24.621Z,100349.34
2018-09-04T11:31:30.173Z,100340.08
2018-09-04T11:32:35.927Z,100346.09
2018-09-04T11:33:41.561Z,100338.16
2018-09-04T11:34:47.480Z,100345.39
2018-09-04T11:35:53.279Z,100343.90
2018-09-04T11:36:59.117Z,100349.00
2018-09-04T11:38:04.607Z,100349.11
2018-09-04T11:39:10.768Z,100343.48
2018-09-04T11:40:17.959Z,100342.94
2018-09-04T11:41:24.399Z,100342.39
2018-09-04T11:42:30.161Z,100343.84
2018-09-04T11:43:36.350Z,100345.78
2018-09-04T11:44:42.235Z,100339.31
2018-09-04T11:45:48.125Z,100333.98
2018-09-04T11:46:54.263Z,100339.94
2018-09-04T11:48:01.131Z,100333.61
2018-09-04T11:49:06.601Z,100330.37
2018-09-04T11:50:12.478Z,100333.06
2018-09-04T11:51:18.121Z,100334.83
2018-09-04T11:52:23.960Z,100333.48
2018-09-04T11:53:30.028Z,100336.02
2018-09-04T11:54:35.857Z,100333.85
2018-09-04T11:55:41.683Z,100336.28
2018-09-04T11:56:47.520Z,100334.67
2018-09-04T11:57:53.384Z,100340.84
2018-09-04T11:58:59.185Z,100339.23
2018-09-04T12:00:03.967Z,100338.36
2018-09-04T12:01:09.593Z,100339.44
2018-09-04T12:02:15.355Z,100336.09
2018-09-04T12:03:21.055Z,100334.91
2018-09-04T12:04:26.829Z,100336.38
2018-09-04T12:05:32.870Z,100340.99
2018-09-04T12:06:38.797Z,100339.32
2018-09-04T12:07:44.659Z,100339.47
2018-09-04T12:08:50.463Z,100340.25
2018-09-04T12:09:56.378Z,100339.72
2018-09-04T12:11:02.594Z,100331.60
2018-09-04T12:12:08.139Z,100331.21
2018-09-04T12:13:13.819Z,100334.03
2018-09-04T12:14:19.777Z,100337.97
2018-09-04T12:15:25.583Z,100328.14
2018-09-04T12:16:32.121Z,100328.28
2018-09-04T12:17:38.247Z,100329.85
2018-09-04T12:18:44.364Z,100325.30
2018-09-04T12:19:49.811Z,100325.86
2018-09-04T12:20:54.977Z,100322.14
2018-09-04T12:22:01.235Z,100331.83
2018-09-04T12:23:07.328Z,100329.58
2018-09-04T12:24:13.531Z,100327.41
2018-09-04T12:25:19.412Z,100318.23
2018-09-04T12:26:25.552Z,100326.71
2018-09-04T12:27:31.417Z,100322.52
2018-09-04T12:28:37.071Z,100323.86
2018-09-04T12:29:43.020Z,100321.45
2018-09-04T12:30:49.179Z,100324.22
2018-09-04T12:31:54.954Z,100318.39
2018-09-04T12:33:01.057Z,100315.99
2018-09-04T12:34:06.811Z,100315.05